ハリファックス の空港の天気 - METARとTAF

ハリファックス国際空港 ( CYHZ / YHZ ) - カナダ ノバスコシア州ハリファックス
飛行場実況気象(Metar)
観測時間01/19 07:00 AST (01/19 11:00 UTC)
風向・風速北西 12m/s 瞬間風速16m/s
視程10km以上
天気現象
全天の4割程度の雲 雲底高度 730m
気温-5℃
湿度58%
気圧1018hPa
METARCYHZ 191100Z 32023G31KT 15SM SCT024 M05/M12 A3003 RMK SC3 PRESRR SLP180
過去の天気等 Google飛行場航空写真 Wunderground天気予報

過去48時間のMETAR

飛行場予報(TAF)
発表時間: 1/19 07:03 AST (1/19 11:03 UTC)
予報対象時間: 19日7時 AST ~ 20日2時 AST
風向・風速北北西 10m/s 瞬間風速 15m/s
視程8050m
天気現象弱いしゅう雪
全天の8割程度の雲 雲底高度 460m
全天の8割程度の雲 雲底高度 910m
19日7時 AST ~ 19日8時 AST に一時的に
視程10km以上
天気現象運行に影響にある天気現象が終了
全天の4割程度の雲 雲底高度 460m
全天の8割程度の雲 雲底高度 910m
19日8時 AST から
風向・風速北西 8m/s 瞬間風速 13m/s
視程10km以上
全天の8割程度の雲 雲底高度 910m
19日12時 AST から
風向・風速北北西 5m/s
視程10km以上
少しの雲 雲底高度 910m
全天の4割程度の雲 雲底高度 6100m
19日14時 AST ~ 19日16時 AST に徐々に
風向・風速北北東 4m/s
19日20時 AST から
風向・風速北北東 3m/s
視程10km以上
全天の8割程度の雲 雲底高度 6100m
TAF AMD CYHZ 191103Z 1911/2006 33020G30KT 5SM -SHSN BKN015 BKN030
TEMPO 1911/1912 P6SM NSW SCT015 BKN030
FM191200 32015G25KT P6SM BKN030
FM191600 34010KT P6SM FEW030 SCT200
BECMG 1918/1920 03007KT
FM200000 03005KT P6SM BKN200 RMK NXT FCST BY 191200Z